createdAt,value
2019-03-09T00:00:40.634Z,1003.93
2019-03-09T00:02:33.532Z,1003.94
2019-03-09T00:03:33.543Z,1003.92
2019-03-09T00:05:26.448Z,1003.85
2019-03-09T00:06:26.449Z,1003.87
2019-03-09T00:08:19.354Z,1003.82
2019-03-09T00:09:19.363Z,1003.85
2019-03-09T00:11:12.271Z,1003.78
2019-03-09T00:12:12.272Z,1003.76
2019-03-09T00:14:05.174Z,1003.72
2019-03-09T00:15:05.181Z,1003.70
2019-03-09T00:16:58.088Z,1003.62
2019-03-09T00:17:58.092Z,1003.65
2019-03-09T00:19:50.998Z,1003.67
2019-03-09T00:20:51.001Z,1003.60
2019-03-09T00:22:43.901Z,1003.55
2019-03-09T00:23:43.913Z,1003.50
2019-03-09T00:25:36.818Z,1003.45
2019-03-09T00:26:36.822Z,1003.35
2019-03-09T00:28:29.726Z,1003.28
2019-03-09T00:29:29.739Z,1003.35
2019-03-09T00:31:22.644Z,1003.25
2019-03-09T00:32:22.646Z,1003.28
2019-03-09T00:34:15.547Z,1003.25
2019-03-09T00:35:15.558Z,1003.22
2019-03-09T00:37:08.465Z,1003.14
2019-03-09T00:38:08.467Z,1003.10
2019-03-09T00:40:01.378Z,1003.05
2019-03-09T00:41:01.380Z,1003.01
2019-03-09T00:42:54.282Z,1002.96
2019-03-09T00:43:54.293Z,1002.98
2019-03-09T00:45:48.229Z,1002.97
2019-03-09T00:46:48.235Z,1002.89
2019-03-09T00:48:41.133Z,1002.87
2019-03-09T00:49:41.148Z,1002.87
2019-03-09T00:51:34.050Z,1002.86
2019-03-09T00:52:34.052Z,1002.83
2019-03-09T00:54:26.952Z,1002.81
2019-03-09T00:55:26.963Z,1002.80
2019-03-09T00:57:19.870Z,1002.79
2019-03-09T00:58:19.874Z,1002.78
2019-03-09T01:00:12.781Z,1002.69
2019-03-09T01:01:12.785Z,1002.67
2019-03-09T01:03:05.682Z,1002.63
2019-03-09T01:04:05.693Z,1002.62
2019-03-09T01:05:58.600Z,1002.58
2019-03-09T01:06:58.604Z,1002.55
2019-03-09T01:08:51.502Z,1002.50
2019-03-09T01:09:51.517Z,1002.52
2019-03-09T01:11:44.422Z,1002.48
2019-03-09T01:12:44.424Z,1002.44
2019-03-09T01:14:37.321Z,1002.32
2019-03-09T01:15:37.337Z,1002.35
2019-03-09T01:17:30.239Z,1002.33
2019-03-09T01:18:30.244Z,1002.24
2019-03-09T01:20:23.150Z,1002.23
2019-03-09T01:21:23.155Z,1002.19
2019-03-09T01:23:17.047Z,1002.23
2019-03-09T01:24:17.060Z,1002.16
2019-03-09T01:26:09.966Z,1002.07
2019-03-09T01:27:09.996Z,1002.04
2019-03-09T01:29:02.878Z,1001.98
2019-03-09T01:30:02.880Z,1001.93
2019-03-09T01:31:55.787Z,1001.82
2019-03-09T01:32:55.838Z,1001.80
2019-03-09T01:34:48.699Z,1001.77
2019-03-09T01:35:48.700Z,1001.77
2019-03-09T01:37:41.608Z,1001.69
2019-03-09T01:38:41.611Z,1001.64
2019-03-09T01:40:34.517Z,1001.65
2019-03-09T01:41:34.521Z,1001.64
2019-03-09T01:43:27.421Z,1001.62
2019-03-09T01:44:27.434Z,1001.56
2019-03-09T01:46:20.341Z,1001.54
2019-03-09T01:47:20.344Z,1001.52
2019-03-09T01:49:13.241Z,1001.51
2019-03-09T01:50:13.253Z,1001.45
2019-03-09T01:52:06.171Z,1001.45
2019-03-09T01:53:06.163Z,1001.40
2019-03-09T01:54:59.062Z,1001.35
2019-03-09T01:55:59.075Z,1001.42
2019-03-09T01:57:51.978Z,1001.37
2019-03-09T01:58:51.982Z,1001.43
2019-03-09T02:00:44.887Z,1001.36
2019-03-09T02:01:44.890Z,1001.44
2019-03-09T02:03:37.789Z,1001.42
2019-03-09T02:04:37.801Z,1001.37
2019-03-09T02:06:30.707Z,1001.34
2019-03-09T02:07:30.709Z,1001.27
2019-03-09T02:09:23.608Z,1001.26
2019-03-09T02:10:23.619Z,1001.30
2019-03-09T02:12:16.525Z,1001.19
2019-03-09T02:13:16.528Z,1001.22
2019-03-09T02:15:09.428Z,1001.12
2019-03-09T02:16:09.438Z,1001.09
2019-03-09T02:18:02.345Z,1001.07
2019-03-09T02:19:02.349Z,1001.02
2019-03-09T02:20:55.256Z,1001.02
2019-03-09T02:21:55.259Z,1000.95
2019-03-09T02:23:48.159Z,1000.90
2019-03-09T02:24:48.170Z,1000.91
2019-03-09T02:26:41.075Z,1000.87
2019-03-09T02:27:41.083Z,1000.81
2019-03-09T02:29:33.978Z,1000.75
2019-03-09T02:30:33.989Z,1000.75
2019-03-09T02:32:26.908Z,1000.69
2019-03-09T02:33:26.900Z,1000.71
2019-03-09T02:35:19.797Z,1000.63
2019-03-09T02:36:19.812Z,1000.66
2019-03-09T02:38:12.711Z,1000.57
2019-03-09T02:39:12.721Z,1000.54
2019-03-09T02:41:05.649Z,1000.55
2019-03-09T02:42:05.650Z,1000.44
2019-03-09T02:43:58.549Z,1000.49
2019-03-09T02:44:58.558Z,1000.47
2019-03-09T02:46:51.468Z,1000.42
2019-03-09T02:47:51.474Z,1000.43
2019-03-09T02:49:44.372Z,1000.39
2019-03-09T02:50:44.381Z,1000.39
2019-03-09T02:52:37.294Z,1000.43
2019-03-09T02:53:37.302Z,1000.45
2019-03-09T02:55:30.192Z,1000.40
2019-03-09T02:56:30.203Z,1000.33
2019-03-09T02:58:23.107Z,1000.31
2019-03-09T02:59:23.112Z,1000.24
2019-03-09T03:01:16.016Z,1000.20
2019-03-09T03:02:16.021Z,1000.15
2019-03-09T03:04:08.920Z,1000.15
2019-03-09T03:05:08.931Z,1000.08
2019-03-09T03:07:01.837Z,1000.09
2019-03-09T03:08:01.843Z,1000.09
2019-03-09T03:09:54.738Z,1000.10
2019-03-09T03:10:54.751Z,1000.08
2019-03-09T03:12:47.658Z,1000.06
2019-03-09T03:13:47.659Z,1000.07
2019-03-09T03:15:40.556Z,1000.03
2019-03-09T03:16:40.567Z,1000.11
2019-03-09T03:18:33.475Z,1000.11
2019-03-09T03:19:33.478Z,1000.11
2019-03-09T03:21:26.384Z,1000.13
2019-03-09T03:22:26.388Z,1000.11
2019-03-09T03:24:19.287Z,1000.13
2019-03-09T03:25:19.302Z,1000.16
2019-03-09T03:27:12.206Z,1000.16
2019-03-09T03:28:12.208Z,1000.15
2019-03-09T03:30:05.112Z,1000.17
2019-03-09T03:31:05.119Z,1000.19
2019-03-09T03:32:58.027Z,1000.19
2019-03-09T03:33:58.032Z,1000.17
2019-03-09T03:35:50.930Z,1000.10
2019-03-09T03:36:50.940Z,1000.12
2019-03-09T03:38:43.844Z,1000.00
2019-03-09T03:39:43.849Z,1000.00
2019-03-09T03:41:36.759Z,1000.00
2019-03-09T03:42:36.763Z,999.93
2019-03-09T03:44:29.662Z,1000.04
2019-03-09T03:45:29.671Z,1000.03
2019-03-09T03:47:22.583Z,999.99
2019-03-09T03:48:22.585Z,999.97
2019-03-09T03:50:15.480Z,999.97
2019-03-09T03:51:15.491Z,999.95
2019-03-09T03:53:08.400Z,999.91
2019-03-09T03:54:08.401Z,999.90
2019-03-09T03:56:01.301Z,999.91
2019-03-09T03:57:01.311Z,999.91
2019-03-09T03:58:54.217Z,999.90
2019-03-09T03:59:54.220Z,999.86
2019-03-09T04:01:47.124Z,999.81
2019-03-09T04:02:47.127Z,999.87
2019-03-09T04:04:40.026Z,999.69
2019-03-09T04:05:40.036Z,999.85
2019-03-09T04:07:32.946Z,999.92
2019-03-09T04:08:32.951Z,999.88
2019-03-09T04:10:25.850Z,999.85
2019-03-09T04:11:25.867Z,999.80
2019-03-09T04:13:18.766Z,999.76
2019-03-09T04:14:18.772Z,999.78
2019-03-09T04:16:11.671Z,999.76
2019-03-09T04:17:11.681Z,999.78
2019-03-09T04:19:04.586Z,999.71
2019-03-09T04:20:04.599Z,999.79
2019-03-09T04:21:57.504Z,999.67
2019-03-09T04:22:57.509Z,999.78
2019-03-09T04:24:50.402Z,999.78
2019-03-09T04:25:50.415Z,999.80
2019-03-09T04:27:43.346Z,999.91
2019-03-09T04:28:43.347Z,999.91
2019-03-09T04:30:36.227Z,999.87
2019-03-09T04:31:36.239Z,999.97
2019-03-09T04:33:29.188Z,1000.01
2019-03-09T04:34:29.151Z,1000.02
2019-03-09T04:36:22.047Z,1000.08
2019-03-09T04:37:22.058Z,1000.05
2019-03-09T04:39:14.965Z,1000.05
2019-03-09T04:40:14.968Z,1000.08
2019-03-09T04:42:07.876Z,1000.07
2019-03-09T04:43:07.880Z,1000.13
2019-03-09T04:45:00.779Z,1000.15
2019-03-09T04:46:00.798Z,1000.21
2019-03-09T04:47:53.696Z,1000.14
2019-03-09T04:48:53.702Z,1000.13
2019-03-09T04:50:46.599Z,1000.18
2019-03-09T04:51:46.611Z,1000.27
2019-03-09T04:53:39.517Z,1000.27
2019-03-09T04:54:39.520Z,1000.25
2019-03-09T04:56:32.418Z,1000.31
2019-03-09T04:57:32.429Z,1000.24
2019-03-09T04:59:25.334Z,1000.31
2019-03-09T05:00:25.338Z,1000.40
2019-03-09T05:02:18.245Z,1000.37
2019-03-09T05:03:18.248Z,1000.41
2019-03-09T05:05:11.148Z,1000.52
2019-03-09T05:06:11.161Z,1000.50
2019-03-09T05:08:04.072Z,1000.46
2019-03-09T05:09:04.071Z,1000.50
2019-03-09T05:10:56.980Z,1000.37
2019-03-09T05:11:56.980Z,1000.44
2019-03-09T05:13:49.887Z,1000.51
2019-03-09T05:14:49.891Z,1000.55
2019-03-09T05:16:42.791Z,1000.55
2019-03-09T05:17:42.803Z,1000.68
2019-03-09T05:19:35.708Z,1000.69
2019-03-09T05:20:35.713Z,1000.81
2019-03-09T05:22:28.620Z,1000.92
2019-03-09T05:23:28.624Z,1001.01
2019-03-09T05:25:21.524Z,1001.06
2019-03-09T05:26:21.536Z,1001.14
2019-03-09T05:28:14.444Z,1001.09
2019-03-09T05:29:14.450Z,1001.08
2019-03-09T05:31:07.350Z,1001.17
2019-03-09T05:32:07.358Z,1001.17
2019-03-09T05:34:00.269Z,1001.21
2019-03-09T05:35:00.349Z,1001.21
2019-03-09T05:36:53.173Z,1001.21
2019-03-09T05:37:53.194Z,1001.14
2019-03-09T05:39:46.089Z,1001.27
2019-03-09T05:40:46.093Z,1001.30
2019-03-09T05:42:38.997Z,1001.30
2019-03-09T05:43:39.002Z,1001.30
2019-03-09T05:45:31.899Z,1001.36
2019-03-09T05:46:31.911Z,1001.31
2019-03-09T05:48:24.820Z,1001.33
2019-03-09T05:49:24.822Z,1001.33
2019-03-09T05:51:17.720Z,1001.30
2019-03-09T05:52:17.730Z,1001.25
2019-03-09T05:54:10.638Z,1001.31
2019-03-09T05:55:10.674Z,1001.23
2019-03-09T05:57:03.548Z,1001.33
2019-03-09T05:58:03.550Z,1001.35
2019-03-09T05:59:56.457Z,1001.29
2019-03-09T06:00:56.461Z,1001.28
2019-03-09T06:02:49.367Z,1001.14
2019-03-09T06:03:49.371Z,1001.15
2019-03-09T06:05:42.271Z,1001.13
2019-03-09T06:06:42.282Z,1001.16
2019-03-09T06:08:35.189Z,1001.31
2019-03-09T06:09:35.192Z,1001.35
2019-03-09T06:11:28.092Z,1001.41
2019-03-09T06:12:28.103Z,1001.49
2019-03-09T06:14:21.013Z,1001.56
2019-03-09T06:15:21.018Z,1001.59
2019-03-09T06:17:13.916Z,1001.67
2019-03-09T06:18:13.927Z,1001.61
2019-03-09T06:20:06.834Z,1001.61
2019-03-09T06:21:06.837Z,1001.61
2019-03-09T06:22:59.745Z,1001.69
2019-03-09T06:23:59.749Z,1001.74
2019-03-09T06:25:52.650Z,1001.82
2019-03-09T06:26:52.662Z,1001.67
2019-03-09T06:28:45.566Z,1001.73
2019-03-09T06:29:45.569Z,1001.76
2019-03-09T06:31:38.469Z,1001.82
2019-03-09T06:32:38.479Z,1001.80
2019-03-09T06:34:31.386Z,1001.88
2019-03-09T06:35:31.391Z,1001.89
2019-03-09T06:37:24.291Z,1001.85
2019-03-09T06:38:24.303Z,1001.88
2019-03-09T06:40:17.206Z,1001.86
2019-03-09T06:41:17.212Z,1001.78
2019-03-09T06:43:10.121Z,1001.86
2019-03-09T06:44:10.124Z,1001.92
2019-03-09T06:46:03.024Z,1001.93
2019-03-09T06:47:03.038Z,1001.99
2019-03-09T06:48:55.944Z,1001.98
2019-03-09T06:49:55.949Z,1002.01
2019-03-09T06:51:48.849Z,1002.04
2019-03-09T06:52:48.862Z,1002.04
2019-03-09T06:54:41.770Z,1002.14
2019-03-09T06:55:41.783Z,1002.06
2019-03-09T06:57:34.677Z,1002.16
2019-03-09T06:58:34.691Z,1002.14
2019-03-09T07:00:27.598Z,1002.15
2019-03-09T07:01:27.602Z,1002.17
2019-03-09T07:03:20.509Z,1002.27
2019-03-09T07:04:20.514Z,1002.31
2019-03-09T07:06:13.416Z,1002.31
2019-03-09T07:07:13.428Z,1002.33
2019-03-09T07:09:06.335Z,1002.33
2019-03-09T07:10:06.338Z,1002.35
2019-03-09T07:11:59.239Z,1002.38
2019-03-09T07:12:59.251Z,1002.40
2019-03-09T07:14:52.157Z,1002.41
2019-03-09T07:15:52.167Z,1002.44
2019-03-09T07:17:45.063Z,1002.41
2019-03-09T07:18:45.076Z,1002.44
2019-03-09T07:20:37.985Z,1002.43
2019-03-09T07:21:37.993Z,1002.43
2019-03-09T07:23:30.902Z,1002.48
2019-03-09T07:24:30.902Z,1002.60
2019-03-09T07:26:23.823Z,1002.63
2019-03-09T07:27:23.833Z,1002.65
2019-03-09T07:29:16.727Z,1002.69
2019-03-09T07:30:16.731Z,1002.60
2019-03-09T07:32:09.631Z,1002.60
2019-03-09T07:33:09.643Z,1002.67
2019-03-09T07:35:03.046Z,1002.70
2019-03-09T07:36:03.050Z,1002.68
2019-03-09T07:37:55.953Z,1002.62
2019-03-09T07:38:55.963Z,1002.67
2019-03-09T07:40:48.872Z,1002.65
2019-03-09T07:41:48.878Z,1002.71
2019-03-09T07:43:41.787Z,1002.68
2019-03-09T07:44:41.792Z,1002.64
2019-03-09T07:46:34.693Z,1002.82
2019-03-09T07:47:34.706Z,1002.89
2019-03-09T07:49:27.615Z,1002.98
2019-03-09T07:50:27.620Z,1002.94
2019-03-09T07:52:20.522Z,1002.91
2019-03-09T07:53:20.534Z,1002.95
2019-03-09T07:55:13.447Z,1002.97
2019-03-09T07:56:13.448Z,1003.01
2019-03-09T07:58:06.354Z,1002.97
2019-03-09T07:59:06.363Z,1003.01
2019-03-09T08:00:59.273Z,1003.08
2019-03-09T08:01:59.279Z,1003.04
2019-03-09T08:03:52.189Z,1003.10
2019-03-09T08:04:52.194Z,1003.16
2019-03-09T08:06:45.237Z,1003.16
2019-03-09T08:07:45.114Z,1003.25
2019-03-09T08:09:38.020Z,1003.22
2019-03-09T08:10:38.026Z,1003.09
2019-03-09T08:12:30.942Z,1003.14
2019-03-09T08:13:30.943Z,1003.06
2019-03-09T08:15:23.849Z,1003.14
2019-03-09T08:16:23.856Z,1003.10
2019-03-09T08:18:16.763Z,1003.12
2019-03-09T08:19:16.771Z,1003.08
2019-03-09T08:21:09.692Z,1003.12
2019-03-09T08:22:09.698Z,1003.06
2019-03-09T08:24:02.596Z,1003.07
2019-03-09T08:25:02.605Z,1003.08
2019-03-09T08:26:55.504Z,1003.04
2019-03-09T08:27:55.517Z,1002.98
2019-03-09T08:29:48.435Z,1003.01
2019-03-09T08:30:48.432Z,1002.95
2019-03-09T08:32:41.331Z,1002.95
2019-03-09T08:33:41.345Z,1002.99
2019-03-09T08:35:34.254Z,1003.04
2019-03-09T08:36:35.111Z,1003.03
2019-03-09T08:38:27.165Z,1003.11
2019-03-09T08:39:27.187Z,1003.03
2019-03-09T08:41:20.096Z,1003.03
2019-03-09T08:42:20.092Z,1003.06
2019-03-09T08:44:13.007Z,1003.09
2019-03-09T08:45:13.041Z,1003.06
2019-03-09T08:47:05.918Z,1003.14
2019-03-09T08:48:05.938Z,1003.03
2019-03-09T08:49:58.841Z,1003.05
2019-03-09T08:50:58.848Z,1003.11
2019-03-09T08:52:51.790Z,1003.14
2019-03-09T08:53:51.782Z,1003.07
2019-03-09T08:55:44.711Z,1003.03
2019-03-09T08:56:44.689Z,1003.10
2019-03-09T08:58:37.603Z,1003.14
2019-03-09T08:59:37.603Z,1003.18
2019-03-09T09:01:30.506Z,1003.13
2019-03-09T09:02:30.512Z,1003.09
2019-03-09T09:04:23.421Z,1003.18
2019-03-09T09:05:23.432Z,1003.15
2019-03-09T09:07:16.338Z,1003.28
2019-03-09T09:08:16.347Z,1003.16
2019-03-09T09:10:09.258Z,1003.20
2019-03-09T09:11:09.264Z,1003.22
2019-03-09T09:13:02.167Z,1003.24
2019-03-09T09:14:02.182Z,1003.20
2019-03-09T09:15:55.093Z,1003.11
2019-03-09T09:16:55.098Z,1003.18
2019-03-09T09:18:48.006Z,1003.09
2019-03-09T09:19:48.017Z,1003.07
2019-03-09T09:21:40.937Z,1003.04
2019-03-09T09:22:40.939Z,1003.02
2019-03-09T09:24:33.851Z,1003.02
2019-03-09T09:25:33.857Z,1002.97
2019-03-09T09:27:26.764Z,1002.90
2019-03-09T09:28:26.776Z,1002.90
2019-03-09T09:30:19.692Z,1002.94
2019-03-09T09:31:19.713Z,1002.97
2019-03-09T09:33:12.601Z,1002.92
2019-03-09T09:34:12.614Z,1002.85
2019-03-09T09:36:05.554Z,1002.86
2019-03-09T09:37:05.534Z,1002.90
2019-03-09T09:38:58.440Z,1002.92
2019-03-09T09:39:58.455Z,1002.96
2019-03-09T09:41:51.367Z,1003.01
2019-03-09T09:42:51.374Z,1002.91
2019-03-09T09:44:44.308Z,1002.83
2019-03-09T09:45:44.297Z,1002.93
2019-03-09T09:47:37.200Z,1002.80
2019-03-09T09:48:37.216Z,1002.81
2019-03-09T09:50:30.623Z,1002.82
2019-03-09T09:51:30.628Z,1002.62
2019-03-09T09:53:23.681Z,1002.73
2019-03-09T09:54:23.548Z,1002.75
2019-03-09T09:56:16.461Z,1002.79
2019-03-09T09:57:16.466Z,1002.76
2019-03-09T09:59:09.374Z,1002.65
2019-03-09T10:00:09.387Z,1002.75
2019-03-09T10:02:02.302Z,1002.96
2019-03-09T10:03:02.306Z,1003.00
2019-03-09T10:04:55.223Z,1002.96
2019-03-09T10:05:55.229Z,1003.01
2019-03-09T10:07:48.136Z,1002.82
2019-03-09T10:08:48.146Z,1002.77
2019-03-09T10:10:41.123Z,1002.66
2019-03-09T10:11:41.064Z,1002.76
2019-03-09T10:13:33.971Z,1002.92
2019-03-09T10:14:33.986Z,1002.84
2019-03-09T10:16:26.896Z,1002.84
2019-03-09T10:17:26.903Z,1002.83
2019-03-09T10:19:19.806Z,1002.79
2019-03-09T10:20:19.820Z,1002.80
2019-03-09T10:22:12.766Z,1002.83
2019-03-09T10:23:12.775Z,1002.83
2019-03-09T10:25:05.687Z,1002.80
2019-03-09T10:26:05.738Z,1002.87
2019-03-09T10:27:58.596Z,1002.80
2019-03-09T10:28:58.608Z,1002.78
2019-03-09T10:30:51.521Z,1002.80
2019-03-09T10:31:51.536Z,1002.75
2019-03-09T10:33:44.540Z,1002.63
2019-03-09T10:34:44.450Z,1002.60
2019-03-09T10:36:37.396Z,1002.52
2019-03-09T10:37:37.406Z,1002.63
2019-03-09T10:39:30.311Z,1002.62
2019-03-09T10:40:30.325Z,1002.52
2019-03-09T10:42:23.262Z,1002.50
2019-03-09T10:43:23.243Z,1002.41
2019-03-09T10:45:16.158Z,1002.54
2019-03-09T10:46:16.166Z,1002.57
2019-03-09T10:48:09.072Z,1002.58
2019-03-09T10:49:09.087Z,1002.66
2019-03-09T10:51:01.999Z,1002.62
2019-03-09T10:52:02.006Z,1002.69
2019-03-09T10:53:54.921Z,1002.72
2019-03-09T10:54:54.937Z,1002.60
2019-03-09T10:56:48.644Z,1002.61
2019-03-09T10:57:48.655Z,1002.64
2019-03-09T10:59:41.562Z,1002.76
2019-03-09T11:00:41.575Z,1002.75
2019-03-09T11:02:34.502Z,1002.77
2019-03-09T11:03:34.499Z,1002.66
2019-03-09T11:05:27.422Z,1002.74
2019-03-09T11:06:27.422Z,1002.60
2019-03-09T11:08:20.329Z,1002.60
2019-03-09T11:09:20.346Z,1002.61
2019-03-09T11:11:13.287Z,1002.72
2019-03-09T11:12:13.270Z,1002.68
2019-03-09T11:14:06.191Z,1002.61
2019-03-09T11:15:06.193Z,1002.61
2019-03-09T11:16:59.108Z,1002.61
2019-03-09T11:17:59.146Z,1002.68
2019-03-09T11:19:52.060Z,1002.64
2019-03-09T11:20:52.079Z,1002.61
2019-03-09T11:22:45.006Z,1002.61
2019-03-09T11:23:45.101Z,1002.64
2019-03-09T11:25:37.946Z,1002.60
2019-03-09T11:26:37.940Z,1002.64
2019-03-09T11:28:30.850Z,1002.59
2019-03-09T11:29:30.863Z,1002.57
2019-03-09T11:31:23.785Z,1002.47
2019-03-09T11:32:23.817Z,1002.41
2019-03-09T11:34:16.701Z,1002.28
2019-03-09T11:35:16.714Z,1002.26
2019-03-09T11:37:09.629Z,1002.30
2019-03-09T11:38:09.638Z,1002.27
2019-03-09T11:40:02.542Z,1002.24
2019-03-09T11:41:02.564Z,1002.36
2019-03-09T11:42:55.474Z,1002.18
2019-03-09T11:43:55.482Z,1002.33
2019-03-09T11:45:48.390Z,1002.28
2019-03-09T11:46:48.421Z,1002.20
2019-03-09T11:48:41.331Z,1002.26
2019-03-09T11:49:41.381Z,1002.28
2019-03-09T11:51:34.243Z,1002.36
2019-03-09T11:52:34.252Z,1002.17
2019-03-09T11:54:27.165Z,1002.21
2019-03-09T11:55:27.176Z,1002.17
2019-03-09T11:57:20.092Z,1002.12
2019-03-09T11:58:20.166Z,1002.13
2019-03-09T12:00:13.027Z,1002.09
2019-03-09T12:01:13.028Z,1002.10
2019-03-09T12:03:05.956Z,1002.24
2019-03-09T12:04:05.948Z,1002.31
2019-03-09T12:05:58.855Z,1002.36
2019-03-09T12:06:58.929Z,1002.27
2019-03-09T12:08:51.785Z,1002.34
2019-03-09T12:09:51.794Z,1002.30
2019-03-09T12:11:44.736Z,1002.23
2019-03-09T12:12:44.752Z,1002.22
2019-03-09T12:14:37.655Z,1002.14
2019-03-09T12:15:37.671Z,1002.10
2019-03-09T12:17:30.585Z,1002.11
2019-03-09T12:18:30.599Z,1002.16
2019-03-09T12:20:23.527Z,1001.93
2019-03-09T12:21:23.538Z,1001.94
2019-03-09T12:23:16.451Z,1001.89
2019-03-09T12:24:19.873Z,1001.93
2019-03-09T12:26:09.371Z,1001.76
2019-03-09T12:27:09.384Z,1001.85
2019-03-09T12:29:02.297Z,1001.86
2019-03-09T12:30:03.927Z,1001.70
2019-03-09T12:31:56.231Z,1001.72
2019-03-09T12:32:56.240Z,1001.69
2019-03-09T12:34:49.153Z,1001.75
2019-03-09T12:35:49.162Z,1001.68
2019-03-09T12:37:42.081Z,1001.56
2019-03-09T12:38:42.086Z,1001.67
2019-03-09T12:40:35.009Z,1001.68
2019-03-09T12:41:35.030Z,1001.59
2019-03-09T12:43:27.940Z,1001.59
2019-03-09T12:44:27.951Z,1001.35
2019-03-09T12:46:20.859Z,1001.35
2019-03-09T12:47:20.876Z,1001.43
2019-03-09T12:49:13.800Z,1001.51
2019-03-09T12:50:13.803Z,1001.43
2019-03-09T12:52:06.721Z,1001.43
2019-03-09T12:53:06.729Z,1001.41
2019-03-09T12:54:59.635Z,1001.34
2019-03-09T12:55:59.653Z,1001.29
2019-03-09T12:57:52.567Z,1001.30
2019-03-09T12:58:52.577Z,1001.33
2019-03-09T13:00:45.487Z,1001.24
2019-03-09T13:01:45.503Z,1001.18
2019-03-09T13:03:38.421Z,1001.12
2019-03-09T13:04:38.429Z,1001.26
2019-03-09T13:06:31.336Z,1001.10
2019-03-09T13:07:31.351Z,1000.89
2019-03-09T13:09:24.270Z,1000.86
2019-03-09T13:10:24.276Z,1000.82
2019-03-09T13:12:17.193Z,1000.89
2019-03-09T13:13:17.202Z,1000.78
2019-03-09T13:15:10.110Z,1000.84
2019-03-09T13:16:10.130Z,1000.77
2019-03-09T13:18:03.042Z,1000.78
2019-03-09T13:19:03.052Z,1000.80
2019-03-09T13:20:55.962Z,1000.64
2019-03-09T13:21:55.977Z,1000.66
2019-03-09T13:23:48.903Z,1000.50
2019-03-09T13:24:48.903Z,1000.47
2019-03-09T13:26:41.809Z,1000.37
2019-03-09T13:27:41.824Z,1000.39
2019-03-09T13:29:34.732Z,1000.25
2019-03-09T13:30:34.746Z,1000.29
2019-03-09T13:32:27.658Z,1000.18
2019-03-09T13:33:27.666Z,1000.11
2019-03-09T13:35:20.573Z,1000.03
2019-03-09T13:36:20.587Z,999.97
2019-03-09T13:38:13.499Z,999.86
2019-03-09T13:39:13.507Z,999.81
2019-03-09T13:41:06.414Z,999.84
2019-03-09T13:42:06.431Z,999.66
2019-03-09T13:43:59.345Z,999.53
2019-03-09T13:44:59.353Z,999.49
2019-03-09T13:46:52.262Z,999.53
2019-03-09T13:47:52.275Z,999.38
2019-03-09T13:49:45.192Z,999.28
2019-03-09T13:50:45.197Z,999.29
2019-03-09T13:52:38.111Z,999.20
2019-03-09T13:53:38.117Z,999.10
2019-03-09T13:55:31.022Z,999.12
2019-03-09T13:56:31.037Z,999.06
2019-03-09T13:58:23.950Z,998.93
2019-03-09T13:59:23.956Z,998.79
2019-03-09T14:01:16.860Z,998.77
2019-03-09T14:02:16.874Z,998.85
2019-03-09T14:04:09.787Z,998.85
2019-03-09T14:05:09.799Z,998.80
2019-03-09T14:07:02.701Z,998.97
2019-03-09T14:08:02.717Z,999.39
2019-03-09T14:09:55.626Z,999.22
2019-03-09T14:10:55.635Z,999.41
2019-03-09T14:12:48.574Z,999.34
2019-03-09T14:13:48.577Z,999.24
2019-03-09T14:15:41.484Z,999.26
2019-03-09T14:16:41.498Z,999.24
2019-03-09T14:18:34.415Z,999.15
2019-03-09T14:19:34.436Z,999.19
2019-03-09T14:21:27.320Z,999.21
2019-03-09T14:22:27.334Z,999.24
2019-03-09T14:24:20.246Z,999.47
2019-03-09T14:25:20.251Z,999.39
2019-03-09T14:27:15.128Z,999.42
2019-03-09T14:28:13.270Z,999.41
2019-03-09T14:30:06.085Z,999.30
2019-03-09T14:31:06.082Z,999.26
2019-03-09T14:32:59.014Z,999.15
2019-03-09T14:33:59.023Z,999.10
2019-03-09T14:35:51.961Z,999.00
2019-03-09T14:36:51.963Z,999.01
2019-03-09T14:38:44.917Z,998.95
2019-03-09T14:39:44.932Z,998.95
2019-03-09T14:41:38.315Z,998.97
2019-03-09T14:42:38.365Z,998.77
2019-03-09T14:44:31.241Z,998.80
2019-03-09T14:45:31.248Z,998.81
2019-03-09T14:47:24.154Z,998.91
2019-03-09T14:48:24.165Z,998.83
2019-03-09T14:50:17.085Z,998.88
2019-03-09T14:51:17.090Z,998.76
2019-03-09T14:53:10.030Z,998.77
2019-03-09T14:54:10.040Z,998.71
2019-03-09T14:56:02.941Z,998.71
2019-03-09T14:57:02.957Z,998.68
2019-03-09T14:58:55.876Z,998.65
2019-03-09T14:59:55.903Z,998.65
2019-03-09T15:01:48.810Z,998.41
2019-03-09T15:02:48.805Z,998.52
2019-03-09T15:04:41.707Z,998.54
2019-03-09T15:05:41.741Z,998.48
2019-03-09T15:07:34.621Z,998.49
2019-03-09T15:08:34.633Z,998.42
2019-03-09T15:10:27.603Z,998.44
2019-03-09T15:11:27.550Z,998.41
2019-03-09T15:13:20.464Z,998.37
2019-03-09T15:14:20.471Z,998.34
2019-03-09T15:16:13.374Z,998.26
2019-03-09T15:17:13.388Z,998.29
2019-03-09T15:19:06.304Z,998.26
2019-03-09T15:20:06.310Z,998.30
2019-03-09T15:21:59.213Z,998.16
2019-03-09T15:22:59.227Z,998.34
2019-03-09T15:24:52.145Z,998.25
2019-03-09T15:25:52.149Z,998.22
2019-03-09T15:27:45.051Z,998.37
2019-03-09T15:28:45.068Z,998.49
2019-03-09T15:30:37.996Z,998.61
2019-03-09T15:31:37.982Z,998.60
2019-03-09T15:33:30.892Z,998.76
2019-03-09T15:34:30.911Z,998.85
2019-03-09T15:36:23.800Z,998.83
2019-03-09T15:37:23.817Z,998.68
2019-03-09T15:39:16.726Z,998.89
2019-03-09T15:40:17.442Z,999.11
2019-03-09T15:42:09.631Z,999.24
2019-03-09T15:43:09.642Z,999.13
2019-03-09T15:45:02.552Z,999.39
2019-03-09T15:46:02.572Z,998.70
2019-03-09T15:47:55.457Z,999.73
2019-03-09T15:48:55.469Z,999.79
2019-03-09T15:50:48.377Z,999.40
2019-03-09T15:51:48.380Z,999.57
2019-03-09T15:53:41.285Z,999.60
2019-03-09T15:54:41.292Z,999.56
2019-03-09T15:56:34.189Z,999.63
2019-03-09T15:57:34.200Z,999.76
2019-03-09T15:59:27.106Z,999.91
2019-03-09T16:00:27.111Z,999.96
2019-03-09T16:02:20.009Z,999.65
2019-03-09T16:03:20.020Z,999.97
2019-03-09T16:05:12.939Z,1000.18
2019-03-09T16:06:12.932Z,1000.06
2019-03-09T16:08:05.833Z,1000.20
2019-03-09T16:09:05.839Z,1000.32
2019-03-09T16:10:58.751Z,1000.29
2019-03-09T16:11:58.748Z,1000.32
2019-03-09T16:13:51.652Z,1000.47
2019-03-09T16:14:51.654Z,1000.19
2019-03-09T16:16:44.553Z,1000.37
2019-03-09T16:17:44.565Z,1000.25
2019-03-09T16:19:37.470Z,1000.01
2019-03-09T16:20:37.473Z,1000.11
2019-03-09T16:22:30.370Z,1000.20
2019-03-09T16:23:30.382Z,1000.15
2019-03-09T16:25:23.289Z,1000.21
2019-03-09T16:26:23.292Z,1000.26
2019-03-09T16:28:16.191Z,1000.15
2019-03-09T16:29:16.202Z,1000.15
2019-03-09T16:31:09.108Z,1000.01
2019-03-09T16:32:09.111Z,1000.09
2019-03-09T16:34:02.018Z,1000.10
2019-03-09T16:35:02.018Z,1000.13
2019-03-09T16:36:54.917Z,1000.35
2019-03-09T16:37:54.929Z,1000.31
2019-03-09T16:39:47.835Z,1000.36
2019-03-09T16:40:47.837Z,1000.28
2019-03-09T16:42:40.746Z,1000.52
2019-03-09T16:43:40.747Z,1000.60
2019-03-09T16:45:33.654Z,1000.62
2019-03-09T16:46:33.658Z,1000.75
2019-03-09T16:48:26.554Z,1000.89
2019-03-09T16:49:26.568Z,1000.83
2019-03-09T16:51:19.480Z,1000.97
2019-03-09T16:52:19.474Z,1001.12
2019-03-09T16:54:12.378Z,1001.27
2019-03-09T16:55:12.383Z,1000.78
2019-03-09T16:57:05.282Z,1001.25
2019-03-09T16:58:05.297Z,1001.30
2019-03-09T16:59:58.208Z,1001.34
2019-03-09T17:00:58.205Z,1001.38
2019-03-09T17:02:51.103Z,1001.68
2019-03-09T17:03:51.125Z,1001.50
2019-03-09T17:05:44.022Z,1001.74
2019-03-09T17:06:44.023Z,1001.80
2019-03-09T17:08:36.922Z,1001.62
2019-03-09T17:09:36.931Z,1001.73
2019-03-09T17:11:29.836Z,1001.81
2019-03-09T17:12:29.839Z,1001.96
2019-03-09T17:14:22.746Z,1001.84
2019-03-09T17:15:22.754Z,1001.91
2019-03-09T17:17:15.648Z,1001.90
2019-03-09T17:18:15.661Z,1002.01
2019-03-09T17:20:08.567Z,1001.98
2019-03-09T17:21:08.570Z,1002.06
2019-03-09T17:23:01.467Z,1002.07
2019-03-09T17:24:01.482Z,1001.97
2019-03-09T17:25:54.383Z,1002.07
2019-03-09T17:26:54.387Z,1002.05
2019-03-09T17:28:47.287Z,1002.39
2019-03-09T17:29:47.296Z,1002.04
2019-03-09T17:31:40.698Z,1002.33